createdAt,value
2018-06-01T00:00:32.751Z,100276.72
2018-06-01T00:03:00.212Z,100281.05
2018-06-01T00:05:27.660Z,100286.64
2018-06-01T00:07:55.047Z,100283.25
2018-06-01T00:10:22.472Z,100286.45
2018-06-01T00:12:49.880Z,100292.05
2018-06-01T00:15:17.284Z,100287.65
2018-06-01T00:17:44.712Z,100282.65
2018-06-01T00:20:12.120Z,100289.65
2018-06-01T00:22:39.540Z,100284.48
2018-06-01T00:25:07.034Z,100279.12
2018-06-01T00:27:34.468Z,100283.40
2018-06-01T00:30:01.944Z,100288.84
2018-06-01T00:32:29.401Z,100288.03
2018-06-01T00:34:56.861Z,100287.64
2018-06-01T00:37:24.358Z,100293.44
2018-06-01T00:39:51.797Z,100292.47
2018-06-01T00:42:19.216Z,100294.41
2018-06-01T00:44:46.641Z,100296.75
2018-06-01T00:47:14.056Z,100297.35
2018-06-01T00:49:41.485Z,100307.14
2018-06-01T00:52:08.893Z,100311.14
2018-06-01T00:54:48.188Z,100311.51
2018-06-01T00:57:15.592Z,100307.91
2018-06-01T00:59:43.004Z,100303.34
2018-06-01T01:02:10.432Z,100306.58
2018-06-01T01:04:37.858Z,100307.17
2018-06-01T01:07:05.269Z,100307.98
2018-06-01T01:09:32.932Z,100306.38
2018-06-01T01:12:00.331Z,100306.38
2018-06-01T01:14:27.747Z,100304.78
2018-06-01T01:16:55.176Z,100308.41
2018-06-01T01:19:22.589Z,100313.03
2018-06-01T01:21:50.000Z,100307.61
2018-06-01T01:26:51.299Z,100316.00
2018-06-01T01:29:18.721Z,100315.03
2018-06-01T01:31:46.131Z,100309.04
2018-06-01T01:34:13.556Z,100311.06
2018-06-01T01:36:40.972Z,100311.33
2018-06-01T01:39:08.400Z,100313.33
2018-06-01T01:41:35.818Z,100313.73
2018-06-01T01:44:03.222Z,100315.92
2018-06-01T01:46:30.652Z,100322.92
2018-06-01T01:48:58.064Z,100319.52
2018-06-01T01:51:25.467Z,100310.30
2018-06-01T01:53:52.928Z,100318.46
2018-06-01T01:56:20.352Z,100319.63
2018-06-01T01:58:47.749Z,100323.62
2018-06-01T02:01:15.172Z,100318.83
2018-06-01T02:03:42.604Z,100320.83
2018-06-01T02:06:10.028Z,100319.83
2018-06-01T02:08:37.812Z,100322.20
2018-06-01T02:11:05.328Z,100329.39
2018-06-01T02:13:32.825Z,100326.59
2018-06-01T02:16:00.520Z,100326.76
2018-06-01T02:18:28.027Z,100327.19
2018-06-01T02:20:55.460Z,100321.00
2018-06-01T02:23:22.903Z,100327.96
2018-06-01T02:25:50.336Z,100324.77
2018-06-01T02:28:17.765Z,100321.36
2018-06-01T02:30:45.177Z,100328.42
2018-06-01T02:33:12.612Z,100332.78
2018-06-01T02:35:40.040Z,100327.59
2018-06-01T02:38:07.455Z,100329.59
2018-06-01T02:40:34.913Z,100324.28
2018-06-01T02:43:02.352Z,100321.69
2018-06-01T02:45:29.810Z,100328.08
2018-06-01T02:47:57.312Z,100321.86
2018-06-01T02:50:24.826Z,100324.45
2018-06-01T02:52:52.504Z,100317.23
2018-06-01T02:55:19.915Z,100320.00
2018-06-01T02:57:47.327Z,100319.00
2018-06-01T03:00:14.760Z,100310.23
2018-06-01T03:02:42.163Z,100308.01
2018-06-01T03:05:09.691Z,100305.45
2018-06-01T03:07:37.104Z,100309.23
2018-06-01T03:10:04.509Z,100311.64
2018-06-01T03:12:31.939Z,100311.90
2018-06-01T03:14:59.382Z,100304.51
2018-06-01T03:17:26.792Z,100313.53
2018-06-01T03:19:54.226Z,100307.50
2018-06-01T03:22:21.657Z,100305.08
2018-06-01T03:24:49.059Z,100307.70
2018-06-01T03:27:17.189Z,100301.71
2018-06-01T03:29:44.617Z,100303.51
2018-06-01T03:32:12.020Z,100297.34
2018-06-01T03:34:39.451Z,100292.75
2018-06-01T03:37:06.857Z,100293.55
2018-06-01T03:39:34.288Z,100290.52
2018-06-01T03:42:01.692Z,100294.55
2018-06-01T03:44:29.276Z,100291.98
2018-06-01T03:46:56.684Z,100287.16
2018-06-01T03:49:24.096Z,100283.53
2018-06-01T03:51:51.527Z,100284.53
2018-06-01T03:54:19.012Z,100279.91
2018-06-01T03:56:46.468Z,100287.27
2018-06-01T03:59:13.882Z,100281.23
2018-06-01T04:01:41.287Z,100283.20
2018-06-01T04:04:08.821Z,100288.95
2018-06-01T04:06:36.232Z,100298.28
2018-06-01T04:11:43.723Z,100309.62
2018-06-01T04:14:11.136Z,100313.95
2018-06-01T04:16:38.548Z,100308.25
2018-06-01T04:19:06.072Z,100304.60
2018-06-01T04:21:33.475Z,100306.13
2018-06-01T04:24:00.895Z,100298.61
2018-06-01T04:26:28.317Z,100298.19
2018-06-01T04:28:55.754Z,100296.34
2018-06-01T04:31:23.162Z,100298.50
2018-06-01T04:33:50.579Z,100301.53
2018-06-01T04:36:18.009Z,100312.09
2018-06-01T04:38:45.439Z,100314.12
2018-06-01T04:41:12.851Z,100314.53
2018-06-01T04:43:40.280Z,100315.56
2018-06-01T04:46:07.697Z,100313.33
2018-06-01T04:48:35.199Z,100321.39
2018-06-01T04:51:02.637Z,100310.34
2018-06-01T04:53:30.410Z,100311.54
2018-06-01T04:55:57.867Z,100318.77
2018-06-01T04:58:26.249Z,100317.36
2018-06-01T05:00:53.714Z,100312.25
2018-06-01T05:03:21.164Z,100310.02
2018-06-01T05:05:48.601Z,100313.41
2018-06-01T05:08:16.012Z,100315.31
2018-06-01T05:10:43.440Z,100321.52
2018-06-01T05:13:10.852Z,100315.40
2018-06-01T05:15:38.268Z,100315.94
2018-06-01T05:18:05.710Z,100321.36
2018-06-01T05:20:33.221Z,100326.84
2018-06-01T05:23:00.660Z,100334.86
2018-06-01T05:25:28.105Z,100337.18
2018-06-01T05:27:55.548Z,100330.58
2018-06-01T05:30:22.980Z,100331.15
2018-06-01T05:32:50.397Z,100324.52
2018-06-01T05:35:18.008Z,100330.84
2018-06-01T05:37:45.421Z,100321.86
2018-06-01T05:40:12.840Z,100317.44
2018-06-01T05:42:40.271Z,100328.09
2018-06-01T05:45:07.681Z,100322.97
2018-06-01T05:47:35.117Z,100327.34
2018-06-01T05:50:02.624Z,100331.53
2018-06-01T05:52:30.031Z,100323.88
2018-06-01T05:54:57.457Z,100325.83
2018-06-01T05:57:24.865Z,100322.38
2018-06-01T05:59:52.349Z,100323.28
2018-06-01T06:02:19.765Z,100319.95
2018-06-01T06:04:47.200Z,100319.97
2018-06-01T06:07:14.616Z,100318.19
2018-06-01T06:09:42.040Z,100325.26
2018-06-01T06:12:09.465Z,100327.82
2018-06-01T06:14:36.883Z,100330.67
2018-06-01T06:17:04.352Z,100330.03
2018-06-01T06:19:31.774Z,100326.68
2018-06-01T06:21:59.317Z,100311.00
2018-06-01T06:24:26.754Z,100322.42
2018-06-01T06:26:54.197Z,100322.32
2018-06-01T06:29:21.632Z,100321.95
2018-06-01T06:31:49.043Z,100318.08
2018-06-01T06:34:16.455Z,100306.44
2018-06-01T06:36:44.020Z,100307.72
2018-06-01T06:39:11.428Z,100307.63
2018-06-01T06:41:38.849Z,100323.79
2018-06-01T06:44:06.272Z,100316.44
2018-06-01T06:46:33.708Z,100316.49
2018-06-01T06:49:01.167Z,100319.84
2018-06-01T06:51:29.190Z,100320.97
2018-06-01T06:53:56.623Z,100320.34
2018-06-01T06:56:24.050Z,100325.37
2018-06-01T06:58:51.573Z,100334.31
2018-06-01T07:01:18.989Z,100326.84
2018-06-01T07:03:46.418Z,100330.08
2018-06-01T07:06:13.829Z,100334.08
2018-06-01T07:08:41.252Z,100333.47
2018-06-01T07:11:08.666Z,100334.58
2018-06-01T07:13:36.096Z,100334.25
2018-06-01T07:16:03.512Z,100332.86
2018-06-01T07:18:30.920Z,100336.59
2018-06-01T07:20:58.360Z,100342.08
2018-06-01T07:23:25.792Z,100349.30
2018-06-01T07:25:53.220Z,100348.98
2018-06-01T07:28:20.636Z,100355.76
2018-06-01T07:30:48.052Z,100359.58
2018-06-01T07:33:15.838Z,100361.95
2018-06-01T07:35:43.210Z,100365.20
2018-06-01T07:38:10.620Z,100370.60
2018-06-01T07:40:38.062Z,100376.92
2018-06-01T07:43:05.493Z,100379.09
2018-06-01T07:45:32.921Z,100385.47
2018-06-01T07:48:00.340Z,100385.26
2018-06-01T07:50:27.782Z,100382.50
2018-06-01T07:52:55.200Z,100381.02
2018-06-01T07:55:22.608Z,100377.47
2018-06-01T07:57:50.049Z,100383.95
2018-06-01T08:00:17.505Z,100378.52
2018-06-01T08:02:44.931Z,100384.19
2018-06-01T08:05:12.358Z,100382.18
2018-06-01T08:07:39.765Z,100372.02
2018-06-01T08:10:07.188Z,100375.41
2018-06-01T08:12:34.603Z,100371.93
2018-06-01T08:15:02.064Z,100370.82
2018-06-01T08:17:29.477Z,100377.57
2018-06-01T08:19:56.896Z,100377.30
2018-06-01T08:22:24.348Z,100371.70
2018-06-01T08:24:51.822Z,100369.33
2018-06-01T08:27:19.253Z,100368.44
2018-06-01T08:29:46.692Z,100360.83
2018-06-01T08:32:14.116Z,100349.50
2018-06-01T08:34:41.523Z,100345.31
2018-06-01T08:37:09.040Z,100349.41
2018-06-01T08:39:36.511Z,100347.06
2018-06-01T08:42:03.981Z,100347.75
2018-06-01T08:44:31.449Z,100342.31
2018-06-01T08:46:58.931Z,100344.55
2018-06-01T08:49:26.349Z,100346.08
2018-06-01T08:51:53.861Z,100352.15
2018-06-01T08:54:21.283Z,100350.69
2018-06-01T08:56:48.699Z,100352.58
2018-06-01T08:59:16.172Z,100357.21
2018-06-01T09:01:43.567Z,100360.97
2018-06-01T09:04:10.979Z,100364.52
2018-06-01T09:06:38.593Z,100360.10
2018-06-01T09:09:06.072Z,100366.19
2018-06-01T09:11:33.428Z,100370.73
2018-06-01T09:14:00.859Z,100371.12
2018-06-01T09:16:28.295Z,100373.27
2018-06-01T09:18:55.893Z,100378.14
2018-06-01T09:21:23.417Z,100374.66
2018-06-01T09:23:50.840Z,100383.53
2018-06-01T09:26:18.388Z,100379.55
2018-06-01T09:28:45.797Z,100374.34
2018-06-01T09:31:13.215Z,100371.83
2018-06-01T09:33:40.646Z,100377.47
2018-06-01T09:36:08.072Z,100379.45
2018-06-01T09:38:35.525Z,100382.23
2018-06-01T09:41:02.978Z,100385.06
2018-06-01T09:43:30.391Z,100382.64
2018-06-01T09:45:57.815Z,100385.13
2018-06-01T09:48:25.232Z,100381.20
2018-06-01T09:50:52.653Z,100377.07
2018-06-01T09:53:20.067Z,100370.95
2018-06-01T09:55:47.484Z,100367.22
2018-06-01T09:58:14.906Z,100367.52
2018-06-01T10:00:47.859Z,100371.30
2018-06-01T10:03:15.303Z,100378.44
2018-06-01T10:05:42.744Z,100372.83
2018-06-01T10:08:10.165Z,100362.57
2018-06-01T10:10:37.583Z,100363.91
2018-06-01T10:13:05.033Z,100378.41
2018-06-01T10:15:32.511Z,100374.22
2018-06-01T10:17:59.895Z,100370.44
2018-06-01T10:20:27.316Z,100361.51
2018-06-01T10:22:54.755Z,100359.67
2018-06-01T10:25:22.184Z,100362.36
2018-06-01T10:27:49.603Z,100365.75
2018-06-01T10:30:17.008Z,100370.57
2018-06-01T10:32:44.490Z,100375.09
2018-06-01T10:35:11.912Z,100360.78
2018-06-01T10:37:39.337Z,100372.12
2018-06-01T10:40:06.753Z,100368.53
2018-06-01T10:42:34.176Z,100369.09
2018-06-01T10:45:01.623Z,100374.91
2018-06-01T10:47:29.027Z,100376.23
2018-06-01T10:49:56.432Z,100390.22
2018-06-01T10:52:23.869Z,100395.22
2018-06-01T10:54:51.324Z,100396.50
2018-06-01T10:57:18.823Z,100398.32
2018-06-01T10:59:46.228Z,100400.16
2018-06-01T11:02:13.633Z,100395.64
2018-06-01T11:04:41.057Z,100401.36
2018-06-01T11:07:08.463Z,100407.05
2018-06-01T11:09:35.936Z,100415.44
2018-06-01T11:12:03.342Z,100422.73
2018-06-01T11:14:30.763Z,100420.50
2018-06-01T11:16:58.427Z,100431.95
2018-06-01T11:19:26.612Z,100434.30
2018-06-01T11:21:54.453Z,100443.78
2018-06-01T11:24:21.893Z,100447.02
2018-06-01T11:26:49.560Z,100451.39
2018-06-01T11:29:17.652Z,100453.69
2018-06-01T11:31:45.085Z,100464.14
2018-06-01T11:34:12.513Z,100471.64
2018-06-01T11:36:39.993Z,100468.13
2018-06-01T11:39:08.194Z,100471.64
2018-06-01T11:41:36.545Z,100465.70
2018-06-01T11:44:03.988Z,100461.31
2018-06-01T11:46:40.265Z,100464.09
2018-06-01T11:49:11.951Z,100457.86
2018-06-01T11:51:39.653Z,100457.03
2018-06-01T11:54:08.923Z,100458.94
2018-06-01T11:56:36.618Z,100453.58
2018-06-01T11:59:04.563Z,100451.70
2018-06-01T12:01:38.439Z,100446.92
2018-06-01T12:04:06.298Z,100430.73
2018-06-01T12:06:35.999Z,100426.22
2018-06-01T12:09:05.904Z,100435.56
2018-06-01T12:11:33.485Z,100438.34
2018-06-01T12:14:02.389Z,100438.80
2018-06-01T12:16:30.270Z,100431.82
2018-06-01T12:18:58.403Z,100435.92
2018-06-01T12:21:26.033Z,100428.13
2018-06-01T12:23:53.576Z,100425.48
2018-06-01T12:26:21.159Z,100425.25
2018-06-01T12:28:53.082Z,100422.73
2018-06-01T12:31:25.105Z,100423.77
2018-06-01T12:33:53.328Z,100413.02
2018-06-01T12:36:20.824Z,100411.21
2018-06-01T12:38:48.267Z,100397.94
2018-06-01T12:41:15.824Z,100393.48
2018-06-01T12:43:43.327Z,100389.23
2018-06-01T12:46:10.837Z,100387.84
2018-06-01T12:48:38.398Z,100385.53
2018-06-01T12:51:06.104Z,100387.72
2018-06-01T12:53:33.716Z,100374.17
2018-06-01T12:56:01.142Z,100375.73
2018-06-01T12:58:30.326Z,100351.86
2018-06-01T13:00:57.828Z,100365.34
2018-06-01T13:03:25.258Z,100358.87
2018-06-01T13:05:52.756Z,100358.36
2018-06-01T13:08:20.174Z,100345.48
2018-06-01T13:10:47.599Z,100350.52
2018-06-01T13:13:15.741Z,100344.16
2018-06-01T13:15:43.140Z,100346.98
2018-06-01T13:18:10.881Z,100348.78
2018-06-01T13:20:38.490Z,100348.13
2018-06-01T13:23:05.891Z,100353.03
2018-06-01T13:25:33.519Z,100346.28
2018-06-01T13:28:00.971Z,100334.00
2018-06-01T13:30:29.305Z,100334.08
2018-06-01T13:32:56.834Z,100335.23
2018-06-01T13:35:24.367Z,100333.62
2018-06-01T13:37:51.728Z,100322.88
2018-06-01T13:40:19.146Z,100328.01
2018-06-01T13:42:46.584Z,100331.59
2018-06-01T13:45:14.021Z,100334.72
2018-06-01T13:47:41.461Z,100340.33
2018-06-01T13:50:08.851Z,100336.77
2018-06-01T13:52:36.293Z,100327.92
2018-06-01T13:55:03.708Z,100329.01
2018-06-01T13:57:31.226Z,100328.94
2018-06-01T13:59:58.636Z,100331.47
2018-06-01T14:02:26.405Z,100325.48
2018-06-01T14:04:53.869Z,100320.12
2018-06-01T14:07:21.514Z,100308.25
2018-06-01T14:09:48.949Z,100313.58
2018-06-01T14:12:16.964Z,100309.55
2018-06-01T14:14:44.849Z,100304.38
2018-06-01T14:17:12.707Z,100302.56
2018-06-01T14:19:40.640Z,100301.84
2018-06-01T14:22:08.229Z,100297.42
2018-06-01T14:24:36.226Z,100295.28
2018-06-01T14:27:03.888Z,100292.84
2018-06-01T14:29:31.615Z,100287.23
2018-06-01T14:31:59.208Z,100283.96
2018-06-01T14:34:27.055Z,100292.58
2018-06-01T14:36:54.757Z,100293.52
2018-06-01T14:39:24.329Z,100293.53
2018-06-01T14:41:51.760Z,100296.98
2018-06-01T14:44:19.283Z,100297.30
2018-06-01T14:46:46.921Z,100287.38
2018-06-01T14:49:14.445Z,100287.77
2018-06-01T14:51:41.852Z,100281.42
2018-06-01T14:54:09.302Z,100281.02
2018-06-01T14:56:36.712Z,100278.58
2018-06-01T14:59:04.141Z,100273.40
2018-06-01T15:01:31.591Z,100273.39
2018-06-01T15:03:59.263Z,100265.20
2018-06-01T15:06:26.747Z,100273.83
2018-06-01T15:08:55.495Z,100277.44
2018-06-01T15:11:23.134Z,100279.24
2018-06-01T15:13:50.573Z,100278.53
2018-06-01T15:16:18.174Z,100283.04
2018-06-01T15:18:45.649Z,100281.28
2018-06-01T15:21:13.087Z,100286.25
2018-06-01T15:23:40.813Z,100287.02
2018-06-01T15:26:08.293Z,100286.12
2018-06-01T15:28:36.050Z,100279.73
2018-06-01T15:31:03.587Z,100292.75
2018-06-01T15:33:31.123Z,100277.16
2018-06-01T15:35:59.400Z,100281.46
2018-06-01T15:38:26.836Z,100277.59
2018-06-01T15:40:54.494Z,100278.30
2018-06-01T15:43:21.926Z,100278.78
2018-06-01T15:45:49.395Z,100275.80
2018-06-01T15:48:16.806Z,100273.12
2018-06-01T15:50:44.246Z,100271.90
2018-06-01T15:53:11.665Z,100281.34
2018-06-01T15:55:39.083Z,100285.82
2018-06-01T15:58:06.513Z,100285.00
2018-06-01T16:00:33.967Z,100294.55
2018-06-01T16:03:01.754Z,100300.96
2018-06-01T16:05:29.191Z,100305.48
2018-06-01T16:07:56.644Z,100304.06
2018-06-01T16:10:24.127Z,100308.43
2018-06-01T16:12:51.532Z,100311.30
2018-06-01T16:15:18.951Z,100311.20
2018-06-01T16:17:46.372Z,100312.42
2018-06-01T16:20:13.891Z,100316.31
2018-06-01T16:22:41.324Z,100316.27
2018-06-01T16:25:08.758Z,100316.31
2018-06-01T16:27:36.245Z,100313.21
2018-06-01T16:30:03.779Z,100317.75
2018-06-01T16:32:31.216Z,100315.34
2018-06-01T16:34:58.709Z,100330.85
2018-06-01T16:37:26.202Z,100329.93
2018-06-01T16:39:53.631Z,100328.69
2018-06-01T16:42:21.068Z,100332.77
2018-06-01T16:44:48.503Z,100338.52
2018-06-01T16:47:15.915Z,100330.67
2018-06-01T16:49:43.338Z,100332.98
2018-06-01T16:52:10.791Z,100328.88
2018-06-01T16:54:38.213Z,100327.67
2018-06-01T16:57:05.643Z,100328.45
2018-06-01T16:59:33.104Z,100343.42
2018-06-01T17:02:00.549Z,100345.05
2018-06-01T17:04:27.984Z,100341.51
2018-06-01T17:06:55.392Z,100341.11
2018-06-01T17:09:22.888Z,100340.42
2018-06-01T17:11:50.320Z,100339.28
2018-06-01T17:14:17.744Z,100335.93
2018-06-01T17:16:45.281Z,100345.30
2018-06-01T17:19:12.691Z,100334.09
2018-06-01T17:21:40.132Z,100333.47
2018-06-01T17:24:07.544Z,100325.81
2018-06-01T17:26:34.949Z,100325.72
2018-06-01T17:29:02.395Z,100318.83
2018-06-01T17:31:29.804Z,100321.41
2018-06-01T17:33:57.354Z,100311.73
2018-06-01T17:36:25.924Z,100304.88
2018-06-01T17:38:53.328Z,100306.42
2018-06-01T17:41:22.022Z,100308.66
2018-06-01T17:43:50.022Z,100301.08
2018-06-01T17:46:19.778Z,100311.48
2018-06-01T17:48:47.348Z,100315.12
2018-06-01T17:51:14.955Z,100318.97
2018-06-01T17:53:42.397Z,100318.16
2018-06-01T17:56:09.816Z,100312.34
2018-06-01T17:58:37.501Z,100311.00
2018-06-01T18:01:04.912Z,100306.27
2018-06-01T18:03:32.376Z,100310.81
2018-06-01T18:05:59.861Z,100316.17
2018-06-01T18:08:27.293Z,100329.92
2018-06-01T18:10:54.733Z,100327.33
2018-06-01T18:13:22.159Z,100323.89
2018-06-01T18:15:49.619Z,100323.50
2018-06-01T18:18:17.090Z,100318.37
2018-06-01T18:20:44.513Z,100317.47
2018-06-01T18:23:11.952Z,100317.43
2018-06-01T18:25:39.370Z,100305.28
2018-06-01T18:28:06.780Z,100308.03
2018-06-01T18:30:34.207Z,100304.38
2018-06-01T18:33:01.611Z,100301.73
2018-06-01T18:35:29.031Z,100306.50
2018-06-01T18:37:56.445Z,100307.87
2018-06-01T18:40:23.856Z,100316.26
2018-06-01T18:42:51.285Z,100312.45
2018-06-01T18:45:18.729Z,100323.64
2018-06-01T18:47:46.127Z,100327.03
2018-06-01T18:50:13.588Z,100328.54
2018-06-01T18:52:41.127Z,100336.92
2018-06-01T18:55:08.631Z,100338.89
2018-06-01T18:57:36.060Z,100345.52
2018-06-01T19:00:03.484Z,100342.59
2018-06-01T19:02:30.904Z,100356.34
2018-06-01T19:04:58.316Z,100366.11
2018-06-01T19:07:25.752Z,100375.61
2018-06-01T19:09:53.174Z,100389.45
2018-06-01T19:12:20.580Z,100387.00
2018-06-01T19:14:48.018Z,100388.77
2018-06-01T19:17:15.432Z,100389.34
2018-06-01T19:19:42.864Z,100395.48
2018-06-01T19:22:10.281Z,100393.37
2018-06-01T19:24:37.699Z,100392.84
2018-06-01T19:27:05.190Z,100393.14
2018-06-01T19:29:32.682Z,100386.65
2018-06-01T19:32:00.137Z,100391.38
2018-06-01T19:34:27.653Z,100393.14
2018-06-01T19:36:55.081Z,100393.44
2018-06-01T19:39:22.541Z,100383.30
2018-06-01T19:41:49.977Z,100380.59
2018-06-01T19:44:17.393Z,100379.91
2018-06-01T19:46:44.820Z,100379.41
2018-06-01T19:49:12.237Z,100372.09
2018-06-01T19:51:39.675Z,100375.01
2018-06-01T19:54:07.087Z,100374.34
2018-06-01T19:56:34.572Z,100372.52
2018-06-01T19:59:02.028Z,100385.64
2018-06-01T20:01:29.533Z,100393.41
2018-06-01T20:03:56.972Z,100391.50
2018-06-01T20:06:24.395Z,100392.94
2018-06-01T20:08:51.803Z,100393.53
2018-06-01T20:11:19.227Z,100380.47
2018-06-01T20:13:46.639Z,100388.74
2018-06-01T20:16:14.069Z,100383.91
2018-06-01T20:18:41.485Z,100389.86
2018-06-01T20:21:08.886Z,100389.59
2018-06-01T20:23:39.228Z,100387.16
2018-06-01T20:26:06.650Z,100387.01
2018-06-01T20:28:34.111Z,100385.67
2018-06-01T20:31:01.577Z,100379.37
2018-06-01T20:33:29.095Z,100388.97
2018-06-01T20:35:56.594Z,100392.87
2018-06-01T20:38:24.048Z,100392.28
2018-06-01T20:40:51.508Z,100392.33
2018-06-01T20:43:18.935Z,100389.54
2018-06-01T20:45:46.393Z,100397.96
2018-06-01T20:48:13.833Z,100415.20
2018-06-01T20:50:41.249Z,100413.20
2018-06-01T20:53:08.988Z,100421.58
2018-06-01T20:55:36.453Z,100414.00
2018-06-01T20:58:03.950Z,100418.20
2018-06-01T21:00:31.396Z,100416.01
2018-06-01T21:02:58.872Z,100421.81
2018-06-01T21:05:26.502Z,100425.69
2018-06-01T21:07:53.959Z,100437.37
2018-06-01T21:10:21.378Z,100436.03
2018-06-01T21:12:48.916Z,100449.97
2018-06-01T21:15:16.334Z,100445.25
2018-06-01T21:17:43.748Z,100444.90
2018-06-01T21:20:11.185Z,100452.16
2018-06-01T21:22:38.605Z,100448.17
2018-06-01T21:25:06.179Z,100457.03
2018-06-01T21:27:33.638Z,100447.81
2018-06-01T21:30:01.194Z,100455.83
2018-06-01T21:32:28.786Z,100454.27
2018-06-01T21:34:56.307Z,100455.03
2018-06-01T21:37:23.977Z,100454.27
2018-06-01T21:39:51.391Z,100458.08
2018-06-01T21:42:18.811Z,100467.30
2018-06-01T21:44:46.339Z,100462.89
2018-06-01T21:47:13.755Z,100458.89
2018-06-01T21:49:41.172Z,100468.71
2018-06-01T21:52:08.605Z,100466.19
2018-06-01T21:54:36.132Z,100466.48
2018-06-01T21:57:03.796Z,100458.93
2018-06-01T21:59:31.216Z,100465.63
2018-06-01T22:01:58.621Z,100471.09
2018-06-01T22:04:26.082Z,100478.16
2018-06-01T22:06:53.481Z,100479.04
2018-06-01T22:09:20.914Z,100481.05
2018-06-01T22:11:48.328Z,100482.70
2018-06-01T22:14:15.740Z,100468.20
2018-06-01T22:19:09.863Z,100477.95
2018-06-01T22:21:37.275Z,100471.98
2018-06-01T22:24:04.705Z,100473.79
2018-06-01T22:26:32.114Z,100472.62
2018-06-01T22:28:59.536Z,100468.41
2018-06-01T22:31:26.972Z,100468.98
2018-06-01T22:33:54.392Z,100475.62
2018-06-01T22:36:21.823Z,100468.66
2018-06-01T22:38:49.224Z,100475.67
2018-06-01T22:41:16.657Z,100477.52
2018-06-01T22:43:44.325Z,100474.22
2018-06-01T22:46:11.756Z,100481.27
2018-06-01T22:48:39.170Z,100476.73
2018-06-01T22:51:06.596Z,100484.98
2018-06-01T22:53:34.235Z,100478.82
2018-06-01T22:56:01.652Z,100482.73
2018-06-01T22:58:29.063Z,100482.94
2018-06-01T23:00:56.484Z,100482.44
2018-06-01T23:03:23.911Z,100483.08
2018-06-01T23:05:51.319Z,100488.71
2018-06-01T23:08:18.736Z,100491.95
2018-06-01T23:10:46.169Z,100485.14
2018-06-01T23:13:13.588Z,100489.20
2018-06-01T23:15:40.993Z,100488.24
2018-06-01T23:18:08.424Z,100486.08
2018-06-01T23:20:35.857Z,100486.11
2018-06-01T23:23:03.274Z,100492.97
2018-06-01T23:25:30.716Z,100492.73
2018-06-01T23:27:58.135Z,100487.56
2018-06-01T23:30:25.555Z,100485.77
2018-06-01T23:32:52.965Z,100483.00
2018-06-01T23:35:20.406Z,100484.00
2018-06-01T23:37:47.799Z,100473.00
2018-06-01T23:40:15.242Z,100476.40
2018-06-01T23:42:42.647Z,100480.83
2018-06-01T23:45:10.056Z,100477.86
2018-06-01T23:47:37.743Z,100484.86
2018-06-01T23:50:05.160Z,100474.66
2018-06-01T23:52:32.592Z,100485.26
2018-06-01T23:54:59.996Z,100474.26
2018-06-01T23:57:27.412Z,100474.26
2018-06-01T23:59:54.940Z,100481.89
